sensor_id;sensor_type;location;lat;lon;timestamp;P1;durP1;ratioP1;P2;durP2;ratioP2
9080;SDS011;13509;50.760;6.080;2023-05-23T00:01:12;73.13;;;39.87;;
9080;SDS011;13509;50.760;6.080;2023-05-23T00:03:42;70.77;;;37.63;;
9080;SDS011;13509;50.760;6.080;2023-05-23T00:06:10;62.03;;;36.00;;
9080;SDS011;13509;50.760;6.080;2023-05-23T00:08:39;64.73;;;37.70;;
9080;SDS011;13509;50.760;6.080;2023-05-23T00:11:08;68.03;;;37.20;;
9080;SDS011;13509;50.760;6.080;2023-05-23T00:13:37;71.17;;;36.60;;
9080;SDS011;13509;50.760;6.080;2023-05-23T00:16:06;65.43;;;35.93;;
9080;SDS011;13509;50.760;6.080;2023-05-23T00:18:34;63.33;;;37.63;;
9080;SDS011;13509;50.760;6.080;2023-05-23T00:21:03;67.73;;;37.87;;
9080;SDS011;13509;50.760;6.080;2023-05-23T00:23:31;66.70;;;38.00;;
9080;SDS011;13509;50.760;6.080;2023-05-23T00:25:59;67.03;;;38.47;;
9080;SDS011;13509;50.760;6.080;2023-05-23T00:28:27;67.87;;;37.53;;
9080;SDS011;13509;50.760;6.080;2023-05-23T00:30:57;66.17;;;37.20;;
9080;SDS011;13509;50.760;6.080;2023-05-23T00:33:25;61.03;;;36.33;;
9080;SDS011;13509;50.760;6.080;2023-05-23T00:35:54;61.23;;;35.23;;
9080;SDS011;13509;50.760;6.080;2023-05-23T00:38:23;59.40;;;35.87;;
9080;SDS011;13509;50.760;6.080;2023-05-23T00:40:51;61.73;;;36.43;;
9080;SDS011;13509;50.760;6.080;2023-05-23T00:43:20;63.20;;;35.63;;
9080;SDS011;13509;50.760;6.080;2023-05-23T00:45:48;58.30;;;33.33;;
9080;SDS011;13509;50.760;6.080;2023-05-23T00:48:18;60.80;;;33.97;;
9080;SDS011;13509;50.760;6.080;2023-05-23T00:50:46;54.90;;;34.03;;
9080;SDS011;13509;50.760;6.080;2023-05-23T00:53:14;57.33;;;34.80;;
9080;SDS011;13509;50.760;6.080;2023-05-23T00:55:43;55.50;;;33.20;;
9080;SDS011;13509;50.760;6.080;2023-05-23T00:58:11;52.87;;;33.43;;
9080;SDS011;13509;50.760;6.080;2023-05-23T01:00:41;50.23;;;31.77;;
9080;SDS011;13509;50.760;6.080;2023-05-23T01:03:10;49.37;;;31.03;;
9080;SDS011;13509;50.760;6.080;2023-05-23T01:05:45;53.07;;;32.13;;
9080;SDS011;13509;50.760;6.080;2023-05-23T01:08:14;43.67;;;29.60;;
9080;SDS011;13509;50.760;6.080;2023-05-23T01:10:42;47.50;;;31.67;;
9080;SDS011;13509;50.760;6.080;2023-05-23T01:13:13;49.70;;;32.33;;
9080;SDS011;13509;50.760;6.080;2023-05-23T01:15:46;47.53;;;31.23;;
9080;SDS011;13509;50.760;6.080;2023-05-23T01:18:17;46.50;;;31.43;;
9080;SDS011;13509;50.760;6.080;2023-05-23T01:20:48;51.10;;;30.90;;
9080;SDS011;13509;50.760;6.080;2023-05-23T01:23:27;50.47;;;31.70;;
9080;SDS011;13509;50.760;6.080;2023-05-23T01:26:02;55.57;;;31.77;;
9080;SDS011;13509;50.760;6.080;2023-05-23T01:28:32;46.20;;;31.23;;
9080;SDS011;13509;50.760;6.080;2023-05-23T01:31:03;50.03;;;32.73;;
9080;SDS011;13509;50.760;6.080;2023-05-23T01:33:33;49.63;;;32.23;;
9080;SDS011;13509;50.760;6.080;2023-05-23T01:36:02;52.97;;;32.33;;
9080;SDS011;13509;50.760;6.080;2023-05-23T01:38:30;50.67;;;32.53;;
9080;SDS011;13509;50.760;6.080;2023-05-23T01:40:58;44.70;;;30.90;;
9080;SDS011;13509;50.760;6.080;2023-05-23T01:43:26;46.63;;;29.30;;
9080;SDS011;13509;50.760;6.080;2023-05-23T01:45:56;41.33;;;27.40;;
9080;SDS011;13509;50.760;6.080;2023-05-23T01:48:25;35.77;;;26.73;;
9080;SDS011;13509;50.760;6.080;2023-05-23T01:50:54;37.17;;;24.33;;
9080;SDS011;13509;50.760;6.080;2023-05-23T01:53:23;38.03;;;24.50;;
9080;SDS011;13509;50.760;6.080;2023-05-23T01:55:52;32.23;;;23.13;;
9080;SDS011;13509;50.760;6.080;2023-05-23T01:58:20;38.50;;;26.97;;
9080;SDS011;13509;50.760;6.080;2023-05-23T02:00:49;35.50;;;24.47;;
9080;SDS011;13509;50.760;6.080;2023-05-23T02:03:18;37.77;;;25.27;;
9080;SDS011;13509;50.760;6.080;2023-05-23T02:05:47;34.00;;;25.23;;
9080;SDS011;13509;50.760;6.080;2023-05-23T02:08:15;34.63;;;25.67;;
9080;SDS011;13509;50.760;6.080;2023-05-23T02:10:43;33.47;;;24.00;;
9080;SDS011;13509;50.760;6.080;2023-05-23T02:13:11;35.97;;;24.37;;
9080;SDS011;13509;50.760;6.080;2023-05-23T02:15:40;30.73;;;22.93;;
9080;SDS011;13509;50.760;6.080;2023-05-23T02:18:08;35.50;;;23.03;;
9080;SDS011;13509;50.760;6.080;2023-05-23T02:20:38;36.67;;;23.23;;
9080;SDS011;13509;50.760;6.080;2023-05-23T02:23:06;34.37;;;22.70;;
9080;SDS011;13509;50.760;6.080;2023-05-23T02:25:35;39.23;;;23.03;;
9080;SDS011;13509;50.760;6.080;2023-05-23T02:28:03;27.93;;;20.40;;
9080;SDS011;13509;50.760;6.080;2023-05-23T02:30:31;29.93;;;21.43;;
9080;SDS011;13509;50.760;6.080;2023-05-23T02:33:03;28.87;;;20.37;;
9080;SDS011;13509;50.760;6.080;2023-05-23T02:35:32;33.77;;;20.47;;
9080;SDS011;13509;50.760;6.080;2023-05-23T02:38:01;29.00;;;18.83;;
9080;SDS011;13509;50.760;6.080;2023-05-23T02:40:29;28.43;;;19.63;;
9080;SDS011;13509;50.760;6.080;2023-05-23T02:42:58;25.10;;;18.37;;
9080;SDS011;13509;50.760;6.080;2023-05-23T02:45:26;21.70;;;16.97;;
9080;SDS011;13509;50.760;6.080;2023-05-23T02:47:54;23.80;;;17.10;;
9080;SDS011;13509;50.760;6.080;2023-05-23T02:50:22;23.23;;;17.00;;
9080;SDS011;13509;50.760;6.080;2023-05-23T02:52:51;20.93;;;15.10;;
9080;SDS011;13509;50.760;6.080;2023-05-23T02:55:20;21.07;;;14.80;;
9080;SDS011;13509;50.760;6.080;2023-05-23T02:57:49;18.90;;;14.53;;
9080;SDS011;13509;50.760;6.080;2023-05-23T03:00:17;20.20;;;14.20;;
9080;SDS011;13509;50.760;6.080;2023-05-23T03:02:46;16.67;;;13.50;;
9080;SDS011;13509;50.760;6.080;2023-05-23T03:05:14;19.20;;;12.63;;
9080;SDS011;13509;50.760;6.080;2023-05-23T03:07:43;18.53;;;13.03;;
9080;SDS011;13509;50.760;6.080;2023-05-23T03:10:11;18.83;;;13.30;;
9080;SDS011;13509;50.760;6.080;2023-05-23T03:12:40;18.47;;;13.00;;
9080;SDS011;13509;50.760;6.080;2023-05-23T03:15:09;17.23;;;13.30;;
9080;SDS011;13509;50.760;6.080;2023-05-23T03:17:37;18.40;;;12.83;;
9080;SDS011;13509;50.760;6.080;2023-05-23T03:20:06;19.43;;;13.20;;
9080;SDS011;13509;50.760;6.080;2023-05-23T03:22:35;20.27;;;14.17;;
9080;SDS011;13509;50.760;6.080;2023-05-23T03:25:03;21.33;;;14.37;;
9080;SDS011;13509;50.760;6.080;2023-05-23T03:27:32;18.27;;;13.60;;
9080;SDS011;13509;50.760;6.080;2023-05-23T03:30:01;17.90;;;14.17;;
9080;SDS011;13509;50.760;6.080;2023-05-23T03:32:30;22.23;;;14.33;;
9080;SDS011;13509;50.760;6.080;2023-05-23T03:34:58;20.67;;;14.50;;
9080;SDS011;13509;50.760;6.080;2023-05-23T03:37:26;22.70;;;15.03;;
9080;SDS011;13509;50.760;6.080;2023-05-23T03:39:55;22.17;;;15.73;;
9080;SDS011;13509;50.760;6.080;2023-05-23T03:42:23;19.73;;;15.30;;
9080;SDS011;13509;50.760;6.080;2023-05-23T03:44:52;22.27;;;16.20;;
9080;SDS011;13509;50.760;6.080;2023-05-23T03:47:21;26.87;;;17.23;;
9080;SDS011;13509;50.760;6.080;2023-05-23T03:49:50;23.10;;;16.70;;
9080;SDS011;13509;50.760;6.080;2023-05-23T03:52:18;25.57;;;16.73;;
9080;SDS011;13509;50.760;6.080;2023-05-23T03:54:46;20.07;;;16.87;;
9080;SDS011;13509;50.760;6.080;2023-05-23T03:57:14;24.90;;;17.17;;
9080;SDS011;13509;50.760;6.080;2023-05-23T03:59:42;24.50;;;16.83;;
9080;SDS011;13509;50.760;6.080;2023-05-23T04:02:11;26.93;;;17.07;;
9080;SDS011;13509;50.760;6.080;2023-05-23T04:04:41;27.93;;;17.37;;
9080;SDS011;13509;50.760;6.080;2023-05-23T04:07:09;24.73;;;17.57;;
9080;SDS011;13509;50.760;6.080;2023-05-23T04:09:37;24.77;;;17.90;;
9080;SDS011;13509;50.760;6.080;2023-05-23T04:12:05;24.57;;;17.20;;
9080;SDS011;13509;50.760;6.080;2023-05-23T04:14:34;24.53;;;17.97;;
9080;SDS011;13509;50.760;6.080;2023-05-23T04:17:04;24.37;;;16.90;;
9080;SDS011;13509;50.760;6.080;2023-05-23T04:19:34;25.30;;;15.70;;
9080;SDS011;13509;50.760;6.080;2023-05-23T04:22:04;22.70;;;16.87;;
9080;SDS011;13509;50.760;6.080;2023-05-23T04:24:32;21.80;;;15.93;;
9080;SDS011;13509;50.760;6.080;2023-05-23T04:27:00;18.60;;;13.97;;
9080;SDS011;13509;50.760;6.080;2023-05-23T04:29:29;21.27;;;15.40;;
9080;SDS011;13509;50.760;6.080;2023-05-23T04:31:58;22.73;;;14.73;;
9080;SDS011;13509;50.760;6.080;2023-05-23T04:34:26;21.47;;;15.07;;
9080;SDS011;13509;50.760;6.080;2023-05-23T04:36:56;19.93;;;13.63;;
9080;SDS011;13509;50.760;6.080;2023-05-23T04:39:28;23.40;;;14.80;;
9080;SDS011;13509;50.760;6.080;2023-05-23T04:41:56;22.00;;;15.57;;
9080;SDS011;13509;50.760;6.080;2023-05-23T04:44:25;20.63;;;14.80;;
9080;SDS011;13509;50.760;6.080;2023-05-23T04:46:55;24.57;;;16.20;;
9080;SDS011;13509;50.760;6.080;2023-05-23T04:49:23;21.70;;;14.90;;
9080;SDS011;13509;50.760;6.080;2023-05-23T04:51:52;19.83;;;14.37;;
9080;SDS011;13509;50.760;6.080;2023-05-23T04:54:20;18.83;;;13.77;;
9080;SDS011;13509;50.760;6.080;2023-05-23T04:56:49;16.90;;;13.63;;
9080;SDS011;13509;50.760;6.080;2023-05-23T04:59:18;22.10;;;13.23;;
9080;SDS011;13509;50.760;6.080;2023-05-23T05:01:46;17.97;;;13.00;;
9080;SDS011;13509;50.760;6.080;2023-05-23T05:04:14;21.07;;;13.33;;
9080;SDS011;13509;50.760;6.080;2023-05-23T05:06:43;20.83;;;14.30;;
9080;SDS011;13509;50.760;6.080;2023-05-23T05:09:13;23.03;;;13.87;;
9080;SDS011;13509;50.760;6.080;2023-05-23T05:11:41;22.40;;;13.87;;
9080;SDS011;13509;50.760;6.080;2023-05-23T05:14:11;20.50;;;14.07;;
9080;SDS011;13509;50.760;6.080;2023-05-23T05:16:39;20.70;;;13.97;;
9080;SDS011;13509;50.760;6.080;2023-05-23T05:19:08;22.63;;;13.53;;
9080;SDS011;13509;50.760;6.080;2023-05-23T05:21:36;22.23;;;13.83;;
9080;SDS011;13509;50.760;6.080;2023-05-23T05:24:04;17.93;;;13.13;;
9080;SDS011;13509;50.760;6.080;2023-05-23T05:26:34;18.90;;;13.87;;
9080;SDS011;13509;50.760;6.080;2023-05-23T05:29:03;21.47;;;14.50;;
9080;SDS011;13509;50.760;6.080;2023-05-23T05:31:32;26.93;;;15.23;;
9080;SDS011;13509;50.760;6.080;2023-05-23T05:34:03;22.20;;;14.33;;
9080;SDS011;13509;50.760;6.080;2023-05-23T05:36:31;23.77;;;14.83;;
9080;SDS011;13509;50.760;6.080;2023-05-23T05:38:59;19.33;;;12.77;;
9080;SDS011;13509;50.760;6.080;2023-05-23T05:41:27;21.03;;;13.70;;
9080;SDS011;13509;50.760;6.080;2023-05-23T05:43:56;22.10;;;13.20;;
9080;SDS011;13509;50.760;6.080;2023-05-23T05:46:24;21.87;;;13.57;;
9080;SDS011;13509;50.760;6.080;2023-05-23T05:48:54;20.90;;;13.47;;
9080;SDS011;13509;50.760;6.080;2023-05-23T05:51:22;21.93;;;13.57;;
9080;SDS011;13509;50.760;6.080;2023-05-23T05:53:50;17.93;;;13.33;;
9080;SDS011;13509;50.760;6.080;2023-05-23T05:56:19;19.27;;;13.00;;
9080;SDS011;13509;50.760;6.080;2023-05-23T05:58:47;21.00;;;13.47;;
9080;SDS011;13509;50.760;6.080;2023-05-23T06:01:16;19.40;;;13.40;;
9080;SDS011;13509;50.760;6.080;2023-05-23T06:03:44;24.03;;;13.07;;
9080;SDS011;13509;50.760;6.080;2023-05-23T06:06:14;18.60;;;12.63;;
9080;SDS011;13509;50.760;6.080;2023-05-23T06:08:42;19.47;;;13.60;;
9080;SDS011;13509;50.760;6.080;2023-05-23T06:11:11;20.67;;;12.87;;
9080;SDS011;13509;50.760;6.080;2023-05-23T06:13:39;17.03;;;11.67;;
9080;SDS011;13509;50.760;6.080;2023-05-23T06:16:07;18.50;;;12.33;;
9080;SDS011;13509;50.760;6.080;2023-05-23T06:18:36;18.53;;;11.33;;
9080;SDS011;13509;50.760;6.080;2023-05-23T06:21:04;17.93;;;11.57;;
9080;SDS011;13509;50.760;6.080;2023-05-23T06:23:34;18.13;;;11.93;;
9080;SDS011;13509;50.760;6.080;2023-05-23T06:26:02;18.00;;;12.27;;
9080;SDS011;13509;50.760;6.080;2023-05-23T06:28:33;17.20;;;11.30;;
9080;SDS011;13509;50.760;6.080;2023-05-23T06:31:01;21.03;;;11.73;;
9080;SDS011;13509;50.760;6.080;2023-05-23T06:33:29;15.20;;;10.40;;
9080;SDS011;13509;50.760;6.080;2023-05-23T06:35:57;22.07;;;11.43;;
9080;SDS011;13509;50.760;6.080;2023-05-23T06:38:26;17.90;;;10.70;;
9080;SDS011;13509;50.760;6.080;2023-05-23T06:40:56;17.17;;;10.47;;
9080;SDS011;13509;50.760;6.080;2023-05-23T06:43:24;14.13;;;9.87;;
9080;SDS011;13509;50.760;6.080;2023-05-23T06:45:52;11.90;;;9.10;;
9080;SDS011;13509;50.760;6.080;2023-05-23T06:48:20;16.50;;;9.63;;
9080;SDS011;13509;50.760;6.080;2023-05-23T06:50:49;12.10;;;8.13;;
9080;SDS011;13509;50.760;6.080;2023-05-23T06:53:17;14.60;;;9.03;;
9080;SDS011;13509;50.760;6.080;2023-05-23T06:55:45;16.60;;;8.90;;
9080;SDS011;13509;50.760;6.080;2023-05-23T06:58:15;14.33;;;8.53;;
9080;SDS011;13509;50.760;6.080;2023-05-23T07:00:43;12.13;;;8.63;;
9080;SDS011;13509;50.760;6.080;2023-05-23T07:03:11;12.47;;;7.90;;
9080;SDS011;13509;50.760;6.080;2023-05-23T07:05:39;15.90;;;8.67;;
9080;SDS011;13509;50.760;6.080;2023-05-23T07:08:08;14.00;;;8.80;;
9080;SDS011;13509;50.760;6.080;2023-05-23T07:10:37;14.03;;;8.70;;
9080;SDS011;13509;50.760;6.080;2023-05-23T07:13:07;11.70;;;8.47;;
9080;SDS011;13509;50.760;6.080;2023-05-23T07:15:36;9.23;;;7.50;;
9080;SDS011;13509;50.760;6.080;2023-05-23T07:18:05;12.57;;;7.40;;
9080;SDS011;13509;50.760;6.080;2023-05-23T07:20:33;11.37;;;7.63;;
9080;SDS011;13509;50.760;6.080;2023-05-23T07:23:01;12.57;;;8.43;;
9080;SDS011;13509;50.760;6.080;2023-05-23T07:25:29;12.30;;;7.53;;
9080;SDS011;13509;50.760;6.080;2023-05-23T07:27:58;13.37;;;8.10;;
9080;SDS011;13509;50.760;6.080;2023-05-23T07:30:26;14.33;;;7.77;;
9080;SDS011;13509;50.760;6.080;2023-05-23T07:32:58;12.43;;;7.93;;
9080;SDS011;13509;50.760;6.080;2023-05-23T07:35:27;12.13;;;7.90;;
9080;SDS011;13509;50.760;6.080;2023-05-23T07:37:55;12.37;;;7.80;;
9080;SDS011;13509;50.760;6.080;2023-05-23T07:40:23;17.27;;;8.43;;
9080;SDS011;13509;50.760;6.080;2023-05-23T07:42:51;9.47;;;7.80;;
9080;SDS011;13509;50.760;6.080;2023-05-23T07:45:20;15.57;;;8.67;;
9080;SDS011;13509;50.760;6.080;2023-05-23T07:47:49;14.80;;;8.03;;
9080;SDS011;13509;50.760;6.080;2023-05-23T07:50:19;9.97;;;7.60;;
9080;SDS011;13509;50.760;6.080;2023-05-23T07:52:47;10.93;;;8.20;;
9080;SDS011;13509;50.760;6.080;2023-05-23T07:55:17;12.57;;;8.50;;
9080;SDS011;13509;50.760;6.080;2023-05-23T07:57:45;11.43;;;8.20;;
9080;SDS011;13509;50.760;6.080;2023-05-23T08:00:13;13.87;;;9.03;;
9080;SDS011;13509;50.760;6.080;2023-05-23T08:02:42;15.70;;;9.00;;
9080;SDS011;13509;50.760;6.080;2023-05-23T08:05:10;12.93;;;9.03;;
9080;SDS011;13509;50.760;6.080;2023-05-23T08:07:40;15.87;;;8.73;;
9080;SDS011;13509;50.760;6.080;2023-05-23T08:10:08;16.70;;;9.70;;
9080;SDS011;13509;50.760;6.080;2023-05-23T08:12:36;14.37;;;8.33;;
9080;SDS011;13509;50.760;6.080;2023-05-23T08:15:05;13.10;;;9.10;;
9080;SDS011;13509;50.760;6.080;2023-05-23T08:17:34;14.13;;;10.00;;
9080;SDS011;13509;50.760;6.080;2023-05-23T08:20:03;15.40;;;9.43;;
9080;SDS011;13509;50.760;6.080;2023-05-23T08:22:34;17.40;;;10.13;;
9080;SDS011;13509;50.760;6.080;2023-05-23T08:25:04;15.50;;;10.10;;
9080;SDS011;13509;50.760;6.080;2023-05-23T08:27:32;18.27;;;10.20;;
9080;SDS011;13509;50.760;6.080;2023-05-23T08:30:02;15.57;;;9.77;;
9080;SDS011;13509;50.760;6.080;2023-05-23T08:32:30;17.13;;;10.00;;
9080;SDS011;13509;50.760;6.080;2023-05-23T08:34:58;11.87;;;8.60;;
9080;SDS011;13509;50.760;6.080;2023-05-23T08:37:26;12.33;;;8.80;;
9080;SDS011;13509;50.760;6.080;2023-05-23T08:39:55;17.83;;;10.00;;
9080;SDS011;13509;50.760;6.080;2023-05-23T08:42:24;15.47;;;9.87;;
9080;SDS011;13509;50.760;6.080;2023-05-23T08:44:52;15.17;;;9.27;;
9080;SDS011;13509;50.760;6.080;2023-05-23T08:47:21;15.77;;;9.70;;
9080;SDS011;13509;50.760;6.080;2023-05-23T08:49:49;19.03;;;11.37;;
9080;SDS011;13509;50.760;6.080;2023-05-23T08:52:19;21.20;;;12.53;;
9080;SDS011;13509;50.760;6.080;2023-05-23T08:54:48;19.60;;;11.97;;
9080;SDS011;13509;50.760;6.080;2023-05-23T08:57:17;22.03;;;11.33;;
9080;SDS011;13509;50.760;6.080;2023-05-23T08:59:47;26.10;;;11.73;;
9080;SDS011;13509;50.760;6.080;2023-05-23T09:02:16;20.37;;;11.97;;
9080;SDS011;13509;50.760;6.080;2023-05-23T09:04:44;29.27;;;12.40;;
9080;SDS011;13509;50.760;6.080;2023-05-23T09:07:13;20.67;;;11.93;;
9080;SDS011;13509;50.760;6.080;2023-05-23T09:09:42;28.23;;;12.83;;
9080;SDS011;13509;50.760;6.080;2023-05-23T09:12:11;28.93;;;13.00;;
9080;SDS011;13509;50.760;6.080;2023-05-23T09:14:41;25.80;;;12.60;;
9080;SDS011;13509;50.760;6.080;2023-05-23T09:17:15;25.23;;;11.73;;
9080;SDS011;13509;50.760;6.080;2023-05-23T09:19:45;27.40;;;11.13;;
9080;SDS011;13509;50.760;6.080;2023-05-23T09:22:13;23.23;;;11.63;;
9080;SDS011;13509;50.760;6.080;2023-05-23T09:24:41;26.17;;;11.67;;
9080;SDS011;13509;50.760;6.080;2023-05-23T09:27:10;25.00;;;11.00;;
9080;SDS011;13509;50.760;6.080;2023-05-23T09:29:38;20.10;;;10.03;;
9080;SDS011;13509;50.760;6.080;2023-05-23T09:32:10;17.97;;;10.43;;
9080;SDS011;13509;50.760;6.080;2023-05-23T09:34:41;20.10;;;9.80;;
9080;SDS011;13509;50.760;6.080;2023-05-23T09:37:10;20.57;;;9.10;;
9080;SDS011;13509;50.760;6.080;2023-05-23T09:39:45;17.83;;;8.37;;
9080;SDS011;13509;50.760;6.080;2023-05-23T09:42:17;16.70;;;8.23;;
9080;SDS011;13509;50.760;6.080;2023-05-23T09:44:45;14.70;;;7.90;;
9080;SDS011;13509;50.760;6.080;2023-05-23T09:47:14;15.33;;;7.50;;
9080;SDS011;13509;50.760;6.080;2023-05-23T09:49:44;18.23;;;7.93;;
9080;SDS011;13509;50.760;6.080;2023-05-23T09:52:12;13.77;;;7.57;;
9080;SDS011;13509;50.760;6.080;2023-05-23T09:54:41;13.33;;;6.40;;
9080;SDS011;13509;50.760;6.080;2023-05-23T09:57:13;10.57;;;5.80;;
9080;SDS011;13509;50.760;6.080;2023-05-23T09:59:43;9.87;;;5.33;;
9080;SDS011;13509;50.760;6.080;2023-05-23T10:02:12;10.30;;;5.60;;
9080;SDS011;13509;50.760;6.080;2023-05-23T10:04:46;13.43;;;6.13;;
9080;SDS011;13509;50.760;6.080;2023-05-23T10:07:16;10.57;;;6.27;;
9080;SDS011;13509;50.760;6.080;2023-05-23T10:09:46;13.57;;;6.13;;
9080;SDS011;13509;50.760;6.080;2023-05-23T10:12:34;12.37;;;6.60;;
9080;SDS011;13509;50.760;6.080;2023-05-23T10:15:04;9.90;;;5.50;;
9080;SDS011;13509;50.760;6.080;2023-05-23T10:17:35;14.77;;;6.50;;
9080;SDS011;13509;50.760;6.080;2023-05-23T10:20:07;10.50;;;6.23;;
9080;SDS011;13509;50.760;6.080;2023-05-23T10:22:37;9.33;;;5.53;;
9080;SDS011;13509;50.760;6.080;2023-05-23T10:25:06;12.87;;;5.77;;
9080;SDS011;13509;50.760;6.080;2023-05-23T10:27:35;9.30;;;5.53;;
9080;SDS011;13509;50.760;6.080;2023-05-23T10:30:05;10.93;;;5.73;;
9080;SDS011;13509;50.760;6.080;2023-05-23T10:32:33;11.50;;;5.47;;
9080;SDS011;13509;50.760;6.080;2023-05-23T10:35:06;9.80;;;5.03;;
9080;SDS011;13509;50.760;6.080;2023-05-23T10:37:38;8.47;;;5.10;;
9080;SDS011;13509;50.760;6.080;2023-05-23T10:40:10;9.03;;;5.47;;
9080;SDS011;13509;50.760;6.080;2023-05-23T10:42:41;12.23;;;5.40;;
9080;SDS011;13509;50.760;6.080;2023-05-23T10:45:15;10.10;;;5.40;;
9080;SDS011;13509;50.760;6.080;2023-05-23T10:47:45;9.80;;;5.47;;
9080;SDS011;13509;50.760;6.080;2023-05-23T10:50:15;9.13;;;5.27;;
9080;SDS011;13509;50.760;6.080;2023-05-23T10:52:44;9.47;;;6.17;;
9080;SDS011;13509;50.760;6.080;2023-05-23T10:55:12;7.93;;;4.83;;
9080;SDS011;13509;50.760;6.080;2023-05-23T10:57:43;10.67;;;5.50;;
9080;SDS011;13509;50.760;6.080;2023-05-23T11:02:52;9.33;;;5.17;;
9080;SDS011;13509;50.760;6.080;2023-05-23T11:05:23;9.80;;;5.00;;
9080;SDS011;13509;50.760;6.080;2023-05-23T11:08:06;11.73;;;5.23;;
9080;SDS011;13509;50.760;6.080;2023-05-23T11:10:50;16.70;;;5.47;;
9080;SDS011;13509;50.760;6.080;2023-05-23T11:13:19;14.43;;;6.23;;
9080;SDS011;13509;50.760;6.080;2023-05-23T11:15:47;9.87;;;5.63;;
9080;SDS011;13509;50.760;6.080;2023-05-23T11:18:19;15.63;;;6.40;;
9080;SDS011;13509;50.760;6.080;2023-05-23T11:20:49;11.20;;;5.67;;
9080;SDS011;13509;50.760;6.080;2023-05-23T11:23:20;16.60;;;6.30;;
9080;SDS011;13509;50.760;6.080;2023-05-23T11:25:49;14.37;;;6.27;;
9080;SDS011;13509;50.760;6.080;2023-05-23T11:28:17;10.50;;;5.60;;
9080;SDS011;13509;50.760;6.080;2023-05-23T11:30:47;12.43;;;5.87;;
9080;SDS011;13509;50.760;6.080;2023-05-23T11:33:16;15.57;;;5.63;;
9080;SDS011;13509;50.760;6.080;2023-05-23T11:35:46;7.77;;;5.10;;
9080;SDS011;13509;50.760;6.080;2023-05-23T11:38:17;14.37;;;5.50;;
9080;SDS011;13509;50.760;6.080;2023-05-23T11:40:46;11.63;;;5.57;;
9080;SDS011;13509;50.760;6.080;2023-05-23T11:43:15;9.50;;;5.20;;
9080;SDS011;13509;50.760;6.080;2023-05-23T11:45:44;11.90;;;4.93;;
9080;SDS011;13509;50.760;6.080;2023-05-23T11:48:13;10.43;;;5.43;;
9080;SDS011;13509;50.760;6.080;2023-05-23T11:50:42;9.93;;;4.80;;
9080;SDS011;13509;50.760;6.080;2023-05-23T11:53:11;7.27;;;4.23;;
9080;SDS011;13509;50.760;6.080;2023-05-23T11:55:48;9.93;;;4.67;;
9080;SDS011;13509;50.760;6.080;2023-05-23T11:58:19;11.87;;;4.90;;
9080;SDS011;13509;50.760;6.080;2023-05-23T12:00:47;12.63;;;4.70;;
9080;SDS011;13509;50.760;6.080;2023-05-23T12:03:18;11.90;;;4.53;;
9080;SDS011;13509;50.760;6.080;2023-05-23T12:05:46;12.53;;;5.17;;
9080;SDS011;13509;50.760;6.080;2023-05-23T12:08:15;6.43;;;4.37;;
9080;SDS011;13509;50.760;6.080;2023-05-23T12:10:51;10.10;;;4.93;;
9080;SDS011;13509;50.760;6.080;2023-05-23T12:13:22;13.10;;;4.90;;
9080;SDS011;13509;50.760;6.080;2023-05-23T12:15:52;7.30;;;4.23;;
9080;SDS011;13509;50.760;6.080;2023-05-23T12:18:21;8.10;;;4.63;;
9080;SDS011;13509;50.760;6.080;2023-05-23T12:20:50;10.67;;;5.50;;
9080;SDS011;13509;50.760;6.080;2023-05-23T12:23:19;11.50;;;5.40;;
9080;SDS011;13509;50.760;6.080;2023-05-23T12:25:52;9.10;;;4.97;;
9080;SDS011;13509;50.760;6.080;2023-05-23T12:28:35;9.73;;;4.40;;
9080;SDS011;13509;50.760;6.080;2023-05-23T12:31:07;8.90;;;4.63;;
9080;SDS011;13509;50.760;6.080;2023-05-23T12:33:37;7.80;;;4.47;;
9080;SDS011;13509;50.760;6.080;2023-05-23T12:36:06;6.63;;;3.87;;
9080;SDS011;13509;50.760;6.080;2023-05-23T12:38:35;8.17;;;3.73;;
9080;SDS011;13509;50.760;6.080;2023-05-23T12:41:11;11.10;;;4.37;;
9080;SDS011;13509;50.760;6.080;2023-05-23T12:43:39;7.60;;;4.07;;
9080;SDS011;13509;50.760;6.080;2023-05-23T12:46:08;8.80;;;4.43;;
9080;SDS011;13509;50.760;6.080;2023-05-23T12:48:36;10.37;;;3.90;;
9080;SDS011;13509;50.760;6.080;2023-05-23T12:51:04;7.53;;;4.07;;
9080;SDS011;13509;50.760;6.080;2023-05-23T12:53:32;13.80;;;3.90;;
9080;SDS011;13509;50.760;6.080;2023-05-23T12:56:01;10.83;;;3.93;;
9080;SDS011;13509;50.760;6.080;2023-05-23T12:58:31;8.17;;;3.67;;
9080;SDS011;13509;50.760;6.080;2023-05-23T13:01:00;14.07;;;3.60;;
9080;SDS011;13509;50.760;6.080;2023-05-23T13:03:29;7.90;;;3.30;;
9080;SDS011;13509;50.760;6.080;2023-05-23T13:05:57;7.93;;;3.37;;
9080;SDS011;13509;50.760;6.080;2023-05-23T13:08:25;9.90;;;3.90;;
9080;SDS011;13509;50.760;6.080;2023-05-23T13:10:54;8.50;;;3.10;;
9080;SDS011;13509;50.760;6.080;2023-05-23T13:13:22;6.37;;;2.93;;
9080;SDS011;13509;50.760;6.080;2023-05-23T13:15:52;8.37;;;3.20;;
9080;SDS011;13509;50.760;6.080;2023-05-23T13:18:20;12.63;;;3.37;;
9080;SDS011;13509;50.760;6.080;2023-05-23T13:20:49;9.47;;;3.43;;
9080;SDS011;13509;50.760;6.080;2023-05-23T13:23:17;7.77;;;3.10;;
9080;SDS011;13509;50.760;6.080;2023-05-23T13:25:46;7.77;;;2.90;;
9080;SDS011;13509;50.760;6.080;2023-05-23T13:28:15;8.07;;;3.33;;
9080;SDS011;13509;50.760;6.080;2023-05-23T13:30:43;9.10;;;3.03;;
9080;SDS011;13509;50.760;6.080;2023-05-23T13:33:14;8.50;;;3.10;;
9080;SDS011;13509;50.760;6.080;2023-05-23T13:35:42;7.37;;;3.10;;
9080;SDS011;13509;50.760;6.080;2023-05-23T13:38:10;12.27;;;3.63;;
9080;SDS011;13509;50.760;6.080;2023-05-23T13:40:39;7.47;;;3.30;;
9080;SDS011;13509;50.760;6.080;2023-05-23T13:43:07;7.07;;;3.03;;
9080;SDS011;13509;50.760;6.080;2023-05-23T13:45:36;6.20;;;2.30;;
9080;SDS011;13509;50.760;6.080;2023-05-23T13:48:05;9.60;;;3.17;;
9080;SDS011;13509;50.760;6.080;2023-05-23T13:50:34;8.63;;;3.00;;
9080;SDS011;13509;50.760;6.080;2023-05-23T13:53:03;7.33;;;3.00;;
9080;SDS011;13509;50.760;6.080;2023-05-23T13:55:37;8.67;;;3.60;;
9080;SDS011;13509;50.760;6.080;2023-05-23T13:58:05;9.30;;;2.90;;
9080;SDS011;13509;50.760;6.080;2023-05-23T14:00:33;11.20;;;3.13;;
9080;SDS011;13509;50.760;6.080;2023-05-23T14:03:02;8.90;;;3.20;;
9080;SDS011;13509;50.760;6.080;2023-05-23T14:05:31;10.10;;;3.10;;
9080;SDS011;13509;50.760;6.080;2023-05-23T14:08:01;7.10;;;3.17;;
9080;SDS011;13509;50.760;6.080;2023-05-23T14:10:30;8.17;;;3.00;;
9080;SDS011;13509;50.760;6.080;2023-05-23T14:12:59;8.13;;;3.07;;
9080;SDS011;13509;50.760;6.080;2023-05-23T14:15:27;11.57;;;4.07;;
9080;SDS011;13509;50.760;6.080;2023-05-23T14:17:59;12.37;;;3.47;;
9080;SDS011;13509;50.760;6.080;2023-05-23T14:20:28;8.80;;;3.20;;
9080;SDS011;13509;50.760;6.080;2023-05-23T14:22:57;11.83;;;3.33;;
9080;SDS011;13509;50.760;6.080;2023-05-23T14:25:26;10.53;;;3.87;;
9080;SDS011;13509;50.760;6.080;2023-05-23T14:27:55;12.57;;;3.90;;
9080;SDS011;13509;50.760;6.080;2023-05-23T14:30:23;10.57;;;3.40;;
9080;SDS011;13509;50.760;6.080;2023-05-23T14:32:52;11.27;;;3.17;;
9080;SDS011;13509;50.760;6.080;2023-05-23T14:35:20;8.57;;;3.60;;
9080;SDS011;13509;50.760;6.080;2023-05-23T14:37:48;12.03;;;3.80;;
9080;SDS011;13509;50.760;6.080;2023-05-23T14:40:17;11.00;;;3.77;;
9080;SDS011;13509;50.760;6.080;2023-05-23T14:42:46;10.30;;;3.53;;
9080;SDS011;13509;50.760;6.080;2023-05-23T14:45:14;8.93;;;3.50;;
9080;SDS011;13509;50.760;6.080;2023-05-23T14:47:44;9.07;;;3.53;;
9080;SDS011;13509;50.760;6.080;2023-05-23T14:50:12;9.67;;;3.47;;
9080;SDS011;13509;50.760;6.080;2023-05-23T14:52:41;8.77;;;3.50;;
9080;SDS011;13509;50.760;6.080;2023-05-23T14:55:09;7.53;;;3.30;;
9080;SDS011;13509;50.760;6.080;2023-05-23T14:57:37;11.37;;;3.57;;